NV38 weather

Klas Channel 8 Heliport
Las Vegas, Nevada, United States

Public forecast

Using degrees Fahrenheit for public forecast. Weather courtesy of forecast.io.

METAR (pilot weather report)

Closest report is McCarran International Airport, 3.1 nm (5.7 km) S. Retrieved 2019/03/23 07:56 UTC (32 minutes ago):

KLAS 230756Z 18005KT 10SM FEW085 BKN220 14/00 A3005 RMK AO2 SLP163 T01440000 402060083

TAF (pilot weather forecast)

Closest forecast is McCarran International Airport, 3.1 nm (5.7 km) S. Retrieved 2019/03/23 06:22 UTC (2 hours ago):

TAF KLAS 230520Z 2306/2412 21006KT P6SM FEW100 BKN200 FM231900 21012G22KT P6SM FEW100 SCT200 FM240400 22011KT P6SM FEW100